»·PEaware :: N235B KSMX-KBFL

N235B :: KSMX-KBFL

FLIGHT INFORMATION

Flight Status: Arrived
Operator: Privately registered:
United States
More flights under this callsign
Pilot: Jason D. (29273)
Aircraft: ECLIPSE 500
(EA50)
More flights by this aircraft type
Origin: KSMX Santa Maria Pub/Capt Hancock
United States
Destination: KBFL Meadows
United States
More flights between these airports :: More routes between these airports
Route: KSMX DCT KBFL
File this flight plan on PilotEdge
Remarks: CAT-5 Practice
Altitude:
(Current/Filed)
5,500ft
Speed:
(Current/Filed)
180kts
Departed: 29-Apr-20 08:10 AM
Arrived: 29-Apr-20 08:49 AM
Distance/Time
Traveled:
76nm/0:39
Distance/Time
To Go:
Arrived

Flight Plot

Page will automatically refresh every two minutes.

Flight plan parsing failed; only flown route is shown


Map Options




Map Legend


Flown Route
Filed Route
Departure Airport
Arrival Airport
Navaid (VOR, NDB)
Fix

Horizontal Profiles

Position Reports

Time Latitude Longitude Heading Altitude Ground
Speed
29-Apr-20 08:00 34.892156 -120.455409 250 264ft 0kts
29-Apr-20 08:01 34.892156 -120.455409 250 264ft 0kts
29-Apr-20 08:02 34.892156 -120.455409 250 264ft 0kts
29-Apr-20 08:03 34.892156 -120.455409 250 264ft 0kts
29-Apr-20 08:04 34.892156 -120.455409 250 264ft 0kts
29-Apr-20 08:05 34.892159 -120.455440 291 264ft 1kts
29-Apr-20 08:07 34.891668 -120.452021 92 264ft 15kts
29-Apr-20 08:07 34.891643 -120.447278 87 264ft 16kts
29-Apr-20 08:08 34.892035 -120.446372 45 264ft 0kts
29-Apr-20 08:09 34.896588 -120.450428 315 264ft 106kts
29-Apr-20 08:10 34.926429 -120.452848 81 1879ft 163kts
29-Apr-20 08:11 34.925959 -120.400988 87 3200ft 135kts
29-Apr-20 08:12 34.934554 -120.354075 82 3391ft 155kts
29-Apr-20 08:13 34.951431 -120.313302 70 4473ft 123kts
29-Apr-20 08:14 34.967941 -120.276875 59 5028ft 122kts
29-Apr-20 08:15 34.982160 -120.240318 77 5258ft 145kts
29-Apr-20 08:16 34.995111 -120.185222 95 5292ft 162kts
29-Apr-20 08:17 34.985822 -120.128248 47 4481ft 173kts
29-Apr-20 08:18 35.010258 -120.090014 64 4888ft 138kts
29-Apr-20 08:19 35.032083 -120.051084 54 4850ft 140kts
29-Apr-20 08:20 35.055759 -120.013179 54 4825ft 140kts
29-Apr-20 08:21 35.079393 -119.975285 54 4802ft 140kts
29-Apr-20 08:22 35.102292 -119.937078 63 4848ft 135kts
29-Apr-20 08:23 35.119485 -119.893021 68 5300ft 144kts
29-Apr-20 08:24 35.139756 -119.843281 64 5486ft 174kts
29-Apr-20 08:25 35.155645 -119.783341 70 5473ft 197kts
29-Apr-20 08:26 35.179597 -119.720669 65 5498ft 206kts
29-Apr-20 08:27 35.205754 -119.657158 64 5488ft 211kts
29-Apr-20 08:28 35.232245 -119.592964 64 5478ft 213kts
29-Apr-20 08:29 35.259038 -119.528050 64 5470ft 213kts
29-Apr-20 08:30 35.285867 -119.463134 64 5469ft 213kts
29-Apr-20 08:31 35.312484 -119.398863 63 5525ft 212kts
29-Apr-20 08:32 35.336956 -119.333029 67 5521ft 211kts
29-Apr-20 08:33 35.356402 -119.279709 66 5221ft 152kts
29-Apr-20 08:34 35.372720 -119.228947 69 4315ft 166kts
29-Apr-20 08:35 35.390019 -119.171057 69 2831ft 191kts
29-Apr-20 08:36 35.408263 -119.110276 69 1337ft 191kts
29-Apr-20 08:37 35.409636 -119.060703 133 1132ft 143kts
29-Apr-20 08:38 35.385925 -119.026445 127 932ft 119kts
29-Apr-20 08:39 35.371741 -118.998468 38 735ft 100kts
29-Apr-20 08:40 35.389470 -118.974598 44 749ft 89kts
29-Apr-20 08:41 35.411251 -118.960712 344 1215ft 93kts
29-Apr-20 08:42 35.422240 -118.992990 301 1390ft 126kts
29-Apr-20 08:43 35.440092 -119.030562 316 1666ft 131kts
29-Apr-20 08:44 35.467164 -119.062743 278 1729ft 140kts
29-Apr-20 08:45 35.437101 -119.093598 177 1421ft 144kts
29-Apr-20 08:46 35.414271 -119.062405 123 789ft 106kts
29-Apr-20 08:47 35.426568 -119.044436 308 797ft 98kts
29-Apr-20 08:48 35.440396 -119.063143 32 496ft 20kts
29-Apr-20 08:49 35.440593 -119.062230 123 498ft 10kts
29-Apr-20 08:50 35.437482 -119.057363 82 497ft 25kts

Navigation Log

Ident Type
Flight plan parsing failed, navigation log unavailable